Nissos Mykonos — SYJZ — position and weather

sailwx.info

Track history (hours):
 
Tides and Currents Weather Stations Pressure Air Temp Water Temp Dewpoint Dewpoint Depression Visibility Wind Speed Wind Dir Waves Ship Positions

Nissos Mykonos

Last reported at 2016-Jun-28 10:30 UTC. Time now 2016-Jun-28 15:13 UTC.
Position N 37°33' E 025°36'.

Length 141 m; draft 5.2 m.

Type: Passenger vessel. MMSI: 240389000.

Date/timePositionNaut miles runAvg speedWind from/ knotsBaromVisibWave heightAir tempDewpointWater temp
2016-Jun-28 10:30N 37°33' E 025°36'1415.1
2016-Jun-28 09:33N 37°28' E 025°19'6519.5
2016-Jun-28 06:13N 37°36' E 023°58'2615.2
2016-Jun-28 04:33N 37°57' E 023°38'0 0.0
2016-Jun-28 03:33N 37°57' E 023°38'0 0.0
2016-Jun-28 02:33N 37°57' E 023°38'0 0.0
2016-Jun-28 01:33N 37°57' E 023°38'0 0.0
2016-Jun-28 00:33N 37°57' E 023°38'0 0.0
2016-Jun-27 23:33N 37°57' E 023°38'0 0.0
2016-Jun-27 22:33N 37°57' E 023°38'1515.1
2016-Jun-27 21:33N 37°42' E 023°45'2524.6
2016-Jun-27 20:33N 37°32' E 024°13'2524.7
2016-Jun-27 19:34N 37°31' E 024°44'1211.2
2016-Jun-27 18:30N 37°26' E 024°58'1718.4
2016-Jun-27 17:33N 37°28' E 025°19'14 2.0
2016-Jun-27 10:30N 37°33' E 025°35'1414.4
2016-Jun-27 09:33N 37°28' E 025°19'6619.4
2016-Jun-27 06:10N 37°37' E 023°57'1524.2
2016-Jun-27 05:34N 37°44' E 023°41'1312.8
2016-Jun-27 04:34N 37°57' E 023°38'0 0.0
2016-Jun-27 03:33N 37°57' E 023°38'0 0.0
2016-Jun-27 02:33N 37°57' E 023°38'0 0.0
2016-Jun-27 01:33N 37°57' E 023°38'0 0.0
2016-Jun-27 00:33N 37°57' E 023°38'0 0.0
2016-Jun-26 23:33N 37°57' E 023°38'0 0.0
2016-Jun-26 22:33N 37°57' E 023°38'1414.0
2016-Jun-26 21:34N 37°44' E 023°44'4924.4
2016-Jun-26 19:34N 37°31' E 024°44'1513.0
2016-Jun-26 18:26N 37°27' E 025°01'1415.7
2016-Jun-26 17:33N 37°28' E 025°19'12 1.6
2016-Jun-26 10:21N 37°33' E 025°32'1113.9
2016-Jun-26 09:33N 37°28' E 025°19'5919.2
2016-Jun-26 06:28N 37°34' E 024°05'2223.8
2016-Jun-26 05:34N 37°44' E 023°41'1312.8
2016-Jun-26 04:33N 37°57' E 023°38'0 0.0
2016-Jun-26 03:33N 37°57' E 023°38'0 0.0
2016-Jun-26 02:33N 37°57' E 023°38'0 0.0
2016-Jun-26 01:33N 37°57' E 023°38'0 0.0
2016-Jun-26 00:33N 37°57' E 023°38'0 0.0
2016-Jun-25 23:33N 37°57' E 023°38'0 0.0
2016-Jun-25 22:33N 37°57' E 023°38'0 0.0
2016-Jun-25 21:33N 37°57' E 023°38'8 8.1
2016-Jun-25 20:34N 37°49' E 023°41'2523.9
2016-Jun-25 19:32N 37°35' E 024°06'3024.4
2016-Jun-25 18:18N 37°31' E 024°44'1612.9
2016-Jun-25 17:04N 37°27' E 025°03'1224.6
2016-Jun-25 16:33N 37°28' E 025°19'10 9.7
2016-Jun-25 15:34N 37°31' E 025°30'4 0.7
2016-Jun-25 10:23N 37°35' E 025°32'1214.8
2016-Jun-25 09:34N 37°28' E 025°19'6319.1
2016-Jun-25 06:17N 37°36' E 024°01'1824.3
2016-Jun-25 05:34N 37°44' E 023°41'1312.9
2016-Jun-25 04:34N 37°57' E 023°38'0 0.0
2016-Jun-25 03:33N 37°57' E 023°38'0 0.0
2016-Jun-25 02:33N 37°57' E 023°38'0 0.0
2016-Jun-25 01:34N 37°57' E 023°38'0 0.0
2016-Jun-25 00:33N 37°57' E 023°38'0 0.0
2016-Jun-24 23:34N 37°57' E 023°38'0 0.0
2016-Jun-24 22:33N 37°57' E 023°38'1515.4
2016-Jun-24 21:34N 37°42' E 023°45'4824.0
2016-Jun-24 19:34N 37°31' E 024°44'1210.9
2016-Jun-24 18:29N 37°26' E 024°57'1818.8
2016-Jun-24 17:33N 37°28' E 025°19'2 0.3
2016-Jun-24 10:04N 37°30' E 025°18'3 5.1
2016-Jun-24 09:34N 37°28' E 025°19'2315.6
2016-Jun-24 08:06N 37°31' E 024°51'6317.8
2016-Jun-24 04:33N 37°57' E 023°38'0 0.0
2016-Jun-24 03:33N 37°57' E 023°38'0 0.0
2016-Jun-24 02:33N 37°57' E 023°38'0 0.0
2016-Jun-24 01:33N 37°57' E 023°38'0 0.0
2016-Jun-24 00:33N 37°57' E 023°38'0 0.0
2016-Jun-23 23:33N 37°57' E 023°38'0 0.0
2016-Jun-23 22:33N 37°57' E 023°38'0 0.0
2016-Jun-23 21:33N 37°57' E 023°38'8 7.8
2016-Jun-23 20:33N 37°49' E 023°41'2424.3
2016-Jun-23 19:33N 37°35' E 024°05'3124.4
2016-Jun-23 18:18N 37°31' E 024°44'1411.9
2016-Jun-23 17:09N 37°27' E 025°00'1524.6
2016-Jun-23 16:33N 37°28' E 025°19'1010.0
2016-Jun-23 15:34N 37°30' E 025°31'9 1.6
2016-Jun-23 09:33N 37°28' E 025°19'8020.0
2016-Jun-23 05:33N 37°44' E 023°41'1312.5
2016-Jun-23 04:33N 37°57' E 023°38'0 0.0
2016-Jun-23 03:33N 37°57' E 023°38'0 0.0
2016-Jun-23 02:33N 37°57' E 023°38'1111.5
2016-Jun-23 01:34N 37°46' E 023°43'2524.1
2016-Jun-23 00:31N 37°33' E 024°10'2724.7
2016-Jun-22 23:26N 37°31' E 024°44'2225.0
2016-Jun-22 22:34N 37°31' E 025°12'15410.9
2016-Jun-22 08:23N 40°04' E 024°54'2124.9
2016-Jun-22 07:33N 40°22' E 024°41'2524.9
2016-Jun-22 06:34N 40°45' E 024°27'1111.4
2016-Jun-22 05:33N 40°56' E 024°25'0 0.0
2016-Jun-22 04:33N 40°56' E 024°25'1 0.7
2016-Jun-22 03:33N 40°55' E 024°24'2524.7
2016-Jun-22 02:34N 40°32' E 024°33'2525.0
2016-Jun-22 01:32N 40°09' E 024°49'15710.4
2016-Jun-21 10:29N 37°36' E 025°33'1314.5
2016-Jun-21 09:33N 37°28' E 025°19'8019.9
2016-Jun-21 05:34N 37°44' E 023°41'13 9.3
2016-Jun-21 04:10N 37°57' E 023°38'0 0.0
2016-Jun-21 03:34N 37°57' E 023°38'0 0.0
2016-Jun-21 02:33N 37°57' E 023°38'0 0.0
2016-Jun-21 01:33N 37°57' E 023°38'0 0.0
2016-Jun-21 00:33N 37°57' E 023°38'0 0.0
2016-Jun-20 23:34N 37°57' E 023°38'0 0.0
2016-Jun-20 22:34N 37°57' E 023°38'1413.6
2016-Jun-20 21:34N 37°44' E 023°44'4924.5
2016-Jun-20 19:34N 37°31' E 024°44'1211.1
2016-Jun-20 18:29N 37°26' E 024°57'1818.9
2016-Jun-20 17:33N 37°28' E 025°19'13 1.9
2016-Jun-20 10:34N 37°33' E 025°35'1313.4
2016-Jun-20 09:33N 37°28' E 025°19'1813.8
2016-Jun-20 08:16N 37°26' E 024°57'4323.1
2016-Jun-20 06:25N 37°34' E 024°04'2124.2
2016-Jun-20 05:34N 37°44' E 023°41'1312.6
2016-Jun-20 04:33N 37°57' E 023°38'0 0.0
2016-Jun-20 03:33N 37°57' E 023°38'0 0.0
2016-Jun-20 02:33N 37°57' E 023°38'0 0.0
2016-Jun-20 01:33N 37°57' E 023°38'0 0.0
2016-Jun-20 00:34N 37°57' E 023°38'0 0.0
2016-Jun-19 23:33N 37°57' E 023°38'0 0.0
2016-Jun-19 22:33N 37°57' E 023°38'1413.9
2016-Jun-19 21:33N 37°44' E 023°44'2524.7
2016-Jun-19 20:32N 37°32' E 024°13'2525.0
2016-Jun-19 19:33N 37°31' E 024°44'1512.7
2016-Jun-19 18:22N 37°27' E 025°02'1315.7
2016-Jun-19 17:32N 37°28' E 025°18'15 2.1
2016-Jun-19 10:29N 37°33' E 025°35'1415.1
2016-Jun-19 09:33N 37°28' E 025°19'1814.0
2016-Jun-19 08:17N 37°26' E 024°57'4323.1
2016-Jun-19 06:25N 37°34' E 024°04'2124.1
2016-Jun-19 05:34N 37°44' E 023°40'1312.7
2016-Jun-19 04:34N 37°57' E 023°38'0 0.0
2016-Jun-19 03:34N 37°57' E 023°38'0 0.0
2016-Jun-19 02:33N 37°57' E 023°38'0 0.0
2016-Jun-19 01:33N 37°57' E 023°38'0 0.0
2016-Jun-19 00:33N 37°57' E 023°38'0 0.0
2016-Jun-18 23:33N 37°57' E 023°38'0 0.0
2016-Jun-18 22:34N 37°57' E 023°38'0 0.0
2016-Jun-18 21:34N 37°57' E 023°38'7 7.2
2016-Jun-18 20:34N 37°50' E 023°40'2424.2
2016-Jun-18 19:33N 37°35' E 024°05'3124.8
2016-Jun-18 18:18N 37°31' E 024°44'1513.0
2016-Jun-18 17:09N 37°27' E 025°02'1423.7
2016-Jun-18 16:33N 37°28' E 025°19'10 1.6
2016-Jun-18 10:31N 37°30' E 025°31'  
Track history (hours):
 
Tides and Currents Weather Stations Pressure Air Temp Water Temp Dewpoint Dewpoint Depression Visibility Wind Speed Wind Dir Waves Ship Positions

Nissos Mykonos

Last reported at 2016-Jun-28 10:30 UTC. Time now 2016-Jun-28 15:13 UTC.
Position N 37°33' E 025°36'.

Length 141 m; draft 5.2 m.

Type: Passenger vessel. MMSI: 240389000.

Date/timePositionNaut miles runAvg speedWind from/ knotsBaromVisibWave heightAir tempDewpointWater temp
2016-Jun-28 10:30N 37°33' E 025°36'1415.1
2016-Jun-28 09:33N 37°28' E 025°19'6519.5
2016-Jun-28 06:13N 37°36' E 023°58'2615.2
2016-Jun-28 04:33N 37°57' E 023°38'0 0.0
2016-Jun-28 03:33N 37°57' E 023°38'0 0.0
2016-Jun-28 02:33N 37°57' E 023°38'0 0.0
2016-Jun-28 01:33N 37°57' E 023°38'0 0.0
2016-Jun-28 00:33N 37°57' E 023°38'0 0.0
2016-Jun-27 23:33N 37°57' E 023°38'0 0.0
2016-Jun-27 22:33N 37°57' E 023°38'1515.1
2016-Jun-27 21:33N 37°42' E 023°45'2524.6
2016-Jun-27 20:33N 37°32' E 024°13'2524.7
2016-Jun-27 19:34N 37°31' E 024°44'1211.2
2016-Jun-27 18:30N 37°26' E 024°58'1718.4
2016-Jun-27 17:33N 37°28' E 025°19'14 2.0
2016-Jun-27 10:30N 37°33' E 025°35'1414.4
2016-Jun-27 09:33N 37°28' E 025°19'6619.4
2016-Jun-27 06:10N 37°37' E 023°57'1524.2
2016-Jun-27 05:34N 37°44' E 023°41'1312.8
2016-Jun-27 04:34N 37°57' E 023°38'0 0.0
2016-Jun-27 03:33N 37°57' E 023°38'0 0.0
2016-Jun-27 02:33N 37°57' E 023°38'0 0.0
2016-Jun-27 01:33N 37°57' E 023°38'0 0.0
2016-Jun-27 00:33N 37°57' E 023°38'0 0.0
2016-Jun-26 23:33N 37°57' E 023°38'0 0.0
2016-Jun-26 22:33N 37°57' E 023°38'1414.0
2016-Jun-26 21:34N 37°44' E 023°44'4924.4
2016-Jun-26 19:34N 37°31' E 024°44'1513.0
2016-Jun-26 18:26N 37°27' E 025°01'1415.7
2016-Jun-26 17:33N 37°28' E 025°19'12 1.6
2016-Jun-26 10:21N 37°33' E 025°32'1113.9
2016-Jun-26 09:33N 37°28' E 025°19'5919.2
2016-Jun-26 06:28N 37°34' E 024°05'2223.8
2016-Jun-26 05:34N 37°44' E 023°41'1312.8
2016-Jun-26 04:33N 37°57' E 023°38'0 0.0
2016-Jun-26 03:33N 37°57' E 023°38'0 0.0
2016-Jun-26 02:33N 37°57' E 023°38'0 0.0
2016-Jun-26 01:33N 37°57' E 023°38'0 0.0
2016-Jun-26 00:33N 37°57' E 023°38'0 0.0
2016-Jun-25 23:33N 37°57' E 023°38'0 0.0
2016-Jun-25 22:33N 37°57' E 023°38'0 0.0
2016-Jun-25 21:33N 37°57' E 023°38'8 8.1
2016-Jun-25 20:34N 37°49' E 023°41'2523.9
2016-Jun-25 19:32N 37°35' E 024°06'3024.4
2016-Jun-25 18:18N 37°31' E 024°44'1612.9
2016-Jun-25 17:04N 37°27' E 025°03'1224.6
2016-Jun-25 16:33N 37°28' E 025°19'10 9.7
2016-Jun-25 15:34N 37°31' E 025°30'4 0.7
2016-Jun-25 10:23N 37°35' E 025°32'1214.8
2016-Jun-25 09:34N 37°28' E 025°19'6319.1
2016-Jun-25 06:17N 37°36' E 024°01'1824.3
2016-Jun-25 05:34N 37°44' E 023°41'1312.9
2016-Jun-25 04:34N 37°57' E 023°38'0 0.0
2016-Jun-25 03:33N 37°57' E 023°38'0 0.0
2016-Jun-25 02:33N 37°57' E 023°38'0 0.0
2016-Jun-25 01:34N 37°57' E 023°38'0 0.0
2016-Jun-25 00:33N 37°57' E 023°38'0 0.0
2016-Jun-24 23:34N 37°57' E 023°38'0 0.0
2016-Jun-24 22:33N 37°57' E 023°38'1515.4
2016-Jun-24 21:34N 37°42' E 023°45'4824.0
2016-Jun-24 19:34N 37°31' E 024°44'1210.9
2016-Jun-24 18:29N 37°26' E 024°57'1818.8
2016-Jun-24 17:33N 37°28' E 025°19'2 0.3
2016-Jun-24 10:04N 37°30' E 025°18'3 5.1
2016-Jun-24 09:34N 37°28' E 025°19'2315.6
2016-Jun-24 08:06N 37°31' E 024°51'6317.8
2016-Jun-24 04:33N 37°57' E 023°38'0 0.0
2016-Jun-24 03:33N 37°57' E 023°38'0 0.0
2016-Jun-24 02:33N 37°57' E 023°38'0 0.0
2016-Jun-24 01:33N 37°57' E 023°38'0 0.0
2016-Jun-24 00:33N 37°57' E 023°38'0 0.0
2016-Jun-23 23:33N 37°57' E 023°38'0 0.0
2016-Jun-23 22:33N 37°57' E 023°38'0 0.0
2016-Jun-23 21:33N 37°57' E 023°38'8 7.8
2016-Jun-23 20:33N 37°49' E 023°41'2424.3
2016-Jun-23 19:33N 37°35' E 024°05'3124.4
2016-Jun-23 18:18N 37°31' E 024°44'1411.9
2016-Jun-23 17:09N 37°27' E 025°00'1524.6
2016-Jun-23 16:33N 37°28' E 025°19'1010.0
2016-Jun-23 15:34N 37°30' E 025°31'9 1.6
2016-Jun-23 09:33N 37°28' E 025°19'8020.0
2016-Jun-23 05:33N 37°44' E 023°41'1312.5
2016-Jun-23 04:33N 37°57' E 023°38'0 0.0
2016-Jun-23 03:33N 37°57' E 023°38'0 0.0
2016-Jun-23 02:33N 37°57' E 023°38'1111.5
2016-Jun-23 01:34N 37°46' E 023°43'2524.1
2016-Jun-23 00:31N 37°33' E 024°10'2724.7
2016-Jun-22 23:26N 37°31' E 024°44'2225.0
2016-Jun-22 22:34N 37°31' E 025°12'15410.9
2016-Jun-22 08:23N 40°04' E 024°54'2124.9
2016-Jun-22 07:33N 40°22' E 024°41'2524.9
2016-Jun-22 06:34N 40°45' E 024°27'1111.4
2016-Jun-22 05:33N 40°56' E 024°25'0 0.0
2016-Jun-22 04:33N 40°56' E 024°25'1 0.7
2016-Jun-22 03:33N 40°55' E 024°24'2524.7
2016-Jun-22 02:34N 40°32' E 024°33'2525.0
2016-Jun-22 01:32N 40°09' E 024°49'15710.4
2016-Jun-21 10:29N 37°36' E 025°33'1314.5
2016-Jun-21 09:33N 37°28' E 025°19'8019.9
2016-Jun-21 05:34N 37°44' E 023°41'13 9.3
2016-Jun-21 04:10N 37°57' E 023°38'0 0.0
2016-Jun-21 03:34N 37°57' E 023°38'0 0.0
2016-Jun-21 02:33N 37°57' E 023°38'0 0.0
2016-Jun-21 01:33N 37°57' E 023°38'0 0.0
2016-Jun-21 00:33N 37°57' E 023°38'0 0.0
2016-Jun-20 23:34N 37°57' E 023°38'0 0.0
2016-Jun-20 22:34N 37°57' E 023°38'1413.6
2016-Jun-20 21:34N 37°44' E 023°44'4924.5
2016-Jun-20 19:34N 37°31' E 024°44'1211.1
2016-Jun-20 18:29N 37°26' E 024°57'1818.9
2016-Jun-20 17:33N 37°28' E 025°19'13 1.9
2016-Jun-20 10:34N 37°33' E 025°35'1313.4
2016-Jun-20 09:33N 37°28' E 025°19'1813.8
2016-Jun-20 08:16N 37°26' E 024°57'4323.1
2016-Jun-20 06:25N 37°34' E 024°04'2124.2
2016-Jun-20 05:34N 37°44' E 023°41'1312.6
2016-Jun-20 04:33N 37°57' E 023°38'0 0.0
2016-Jun-20 03:33N 37°57' E 023°38'0 0.0
2016-Jun-20 02:33N 37°57' E 023°38'0 0.0
2016-Jun-20 01:33N 37°57' E 023°38'0 0.0
2016-Jun-20 00:34N 37°57' E 023°38'0 0.0
2016-Jun-19 23:33N 37°57' E 023°38'0 0.0
2016-Jun-19 22:33N 37°57' E 023°38'1413.9
2016-Jun-19 21:33N 37°44' E 023°44'2524.7
2016-Jun-19 20:32N 37°32' E 024°13'2525.0
2016-Jun-19 19:33N 37°31' E 024°44'1512.7
2016-Jun-19 18:22N 37°27' E 025°02'1315.7
2016-Jun-19 17:32N 37°28' E 025°18'15 2.1
2016-Jun-19 10:29N 37°33' E 025°35'1415.1
2016-Jun-19 09:33N 37°28' E 025°19'1814.0
2016-Jun-19 08:17N 37°26' E 024°57'4323.1
2016-Jun-19 06:25N 37°34' E 024°04'2124.1
2016-Jun-19 05:34N 37°44' E 023°40'1312.7
2016-Jun-19 04:34N 37°57' E 023°38'0 0.0
2016-Jun-19 03:34N 37°57' E 023°38'0 0.0
2016-Jun-19 02:33N 37°57' E 023°38'0 0.0
2016-Jun-19 01:33N 37°57' E 023°38'0 0.0
2016-Jun-19 00:33N 37°57' E 023°38'0 0.0
2016-Jun-18 23:33N 37°57' E 023°38'0 0.0
2016-Jun-18 22:34N 37°57' E 023°38'0 0.0
2016-Jun-18 21:34N 37°57' E 023°38'7 7.2
2016-Jun-18 20:34N 37°50' E 023°40'2424.2
2016-Jun-18 19:33N 37°35' E 024°05'3124.8
2016-Jun-18 18:18N 37°31' E 024°44'1513.0
2016-Jun-18 17:09N 37°27' E 025°02'1423.7
2016-Jun-18 16:33N 37°28' E 025°19'10 1.6
2016-Jun-18 10:31N 37°30' E 025°31'  

Dump ship's entire track history